createdAt,value
2022-10-09T15:00:35.110Z,0.9
2022-10-09T15:00:47.169Z,0.9
2022-10-09T15:00:59.114Z,1.3
2022-10-09T15:01:11.142Z,0.8
2022-10-09T15:01:23.077Z,0.8
2022-10-09T15:01:35.125Z,1.6
2022-10-09T15:01:47.215Z,1.7
2022-10-09T15:01:59.120Z,1.7
2022-10-09T15:02:11.206Z,2.5
2022-10-09T15:02:23.114Z,2.1
2022-10-09T15:02:35.192Z,2.1
2022-10-09T15:02:47.080Z,2.4
2022-10-09T15:02:59.673Z,3
2022-10-09T15:03:11.067Z,3
2022-10-09T15:03:23.243Z,3.1
2022-10-09T15:03:35.255Z,3.2
2022-10-09T15:03:47.158Z,2.8
2022-10-09T15:03:59.230Z,2.8
2022-10-09T15:04:11.138Z,4.3
2022-10-09T15:04:23.180Z,2.8
2022-10-09T15:04:35.080Z,2.9
2022-10-09T15:04:47.131Z,3.8
2022-10-09T15:04:59.059Z,3.8
2022-10-09T15:05:11.152Z,2.2
2022-10-09T15:05:23.181Z,1.2
2022-10-09T15:05:35.098Z,1.2
2022-10-09T15:05:47.180Z,2.1
2022-10-09T15:05:59.135Z,3.2
2022-10-09T15:06:11.192Z,1.3
2022-10-09T15:06:23.080Z,1.3
2022-10-09T15:07:23.124Z,1.6
2022-10-09T15:07:35.207Z,0.7
2022-10-09T15:07:59.157Z,1.8
2022-10-09T15:08:35.194Z,0.5
2022-10-09T15:08:47.129Z,1.6
2022-10-09T15:09:11.150Z,1.2
2022-10-09T15:09:23.205Z,1.2
2022-10-09T15:09:47.212Z,2
2022-10-09T15:10:23.199Z,1.1
2022-10-09T15:10:35.144Z,1.5
2022-10-09T15:11:11.159Z,1.8
2022-10-09T15:11:23.330Z,1.8
2022-10-09T15:11:35.142Z,1.2
2022-10-09T15:11:47.241Z,2.6
2022-10-09T15:11:59.126Z,2.6
2022-10-09T15:12:11.248Z,2.8
2022-10-09T15:12:23.144Z,3
2022-10-09T15:12:47.132Z,0.9
2022-10-09T15:12:59.162Z,1.1
2022-10-09T15:13:23.134Z,2.3
2022-10-09T15:13:35.224Z,1.6
2022-10-09T15:13:47.290Z,2.1
2022-10-09T15:14:11.155Z,1.6
2022-10-09T15:14:23.328Z,2
2022-10-09T15:15:11.132Z,0.8
2022-10-09T15:15:35.147Z,1.3
2022-10-09T15:15:47.207Z,2.1
2022-10-09T15:16:47.253Z,2
2022-10-09T15:17:35.197Z,2.6
2022-10-09T15:17:59.155Z,1.8
2022-10-09T15:18:23.179Z,3.2
2022-10-09T15:19:35.087Z,2.5
2022-10-09T15:19:47.158Z,0.8
2022-10-09T15:19:59.123Z,0.8
2022-10-09T15:20:47.220Z,1.8
2022-10-09T15:21:47.293Z,1.6
2022-10-09T15:22:23.115Z,1.1
2022-10-09T15:22:47.099Z,1.7
2022-10-09T15:22:59.157Z,1.7
2022-10-09T15:23:11.072Z,1.7
2022-10-09T15:23:35.222Z,1.2
2022-10-09T15:23:59.167Z,0.7
2022-10-09T15:24:23.198Z,2.3
2022-10-09T15:24:47.138Z,3.5
2022-10-09T15:25:11.118Z,1.4
2022-10-09T15:25:35.105Z,1.5
2022-10-09T15:25:59.092Z,1.1
2022-10-09T15:26:23.124Z,2.5
2022-10-09T15:26:47.182Z,0.8
2022-10-09T15:27:11.202Z,1
2022-10-09T15:27:35.193Z,2
2022-10-09T15:28:38.274Z,2.5
2022-10-09T15:29:38.132Z,2.5
2022-10-09T15:30:38.123Z,0.9
2022-10-09T15:31:38.123Z,0.8
2022-10-09T15:32:38.135Z,1.6
2022-10-09T15:33:38.129Z,1.8
2022-10-09T15:34:40.923Z,1.2
2022-10-09T15:35:38.135Z,0
2022-10-09T15:36:38.135Z,1.6
2022-10-09T15:37:38.151Z,0.5
2022-10-09T15:38:38.132Z,0
2022-10-09T15:39:38.162Z,1.2
2022-10-09T15:40:38.124Z,0.8
2022-10-09T15:41:38.125Z,0.8
2022-10-09T15:42:38.125Z,0
2022-10-09T15:43:39.128Z,0.8
2022-10-09T15:44:38.180Z,1.3
2022-10-09T15:45:38.126Z,1
2022-10-09T15:46:38.125Z,1.8
2022-10-09T15:47:50.695Z,1
2022-10-09T15:48:38.145Z,1
2022-10-09T15:49:38.127Z,1.3
2022-10-09T15:50:38.141Z,1.9
2022-10-09T15:51:38.139Z,0.8
2022-10-09T15:52:38.132Z,1.3
2022-10-09T15:53:38.151Z,2
2022-10-09T15:54:38.135Z,1.2
2022-10-09T15:55:38.161Z,0.6
2022-10-09T15:56:40.034Z,1.8
2022-10-09T15:57:38.138Z,1.7
2022-10-09T15:58:38.140Z,1.6
2022-10-09T15:59:38.145Z,0.8
2022-10-09T16:00:38.166Z,1.9
2022-10-09T16:01:38.215Z,0
2022-10-09T16:02:38.147Z,0.9
2022-10-09T16:03:38.156Z,1.7
2022-10-09T16:04:38.133Z,1.2
2022-10-09T16:05:38.158Z,0.8
2022-10-09T16:06:38.139Z,0.5
2022-10-09T16:07:38.142Z,0
2022-10-09T16:08:38.144Z,0.9
2022-10-09T16:09:38.162Z,0.6
2022-10-09T16:10:38.151Z,0.5
2022-10-09T16:11:38.201Z,0.8
2022-10-09T16:12:38.142Z,0.8
2022-10-09T16:13:38.152Z,2.5
2022-10-09T16:14:38.161Z,0.8
2022-10-09T16:15:38.138Z,0.7
2022-10-09T16:16:38.150Z,0.9
2022-10-09T16:17:38.146Z,1.4
2022-10-09T16:18:38.144Z,0.6
2022-10-09T16:19:38.148Z,0.5
2022-10-09T16:20:38.151Z,0
2022-10-09T16:21:38.183Z,0.6
2022-10-09T16:22:38.159Z,1.4
2022-10-09T16:23:38.164Z,0
2022-10-09T16:24:38.157Z,1.2
2022-10-09T16:25:38.147Z,0.8
2022-10-09T16:26:38.159Z,0.6
2022-10-09T16:27:38.179Z,1
2022-10-09T16:28:38.230Z,0.5
2022-10-09T16:29:38.163Z,0.6
2022-10-09T16:30:38.142Z,0
2022-10-09T16:31:38.156Z,0.8
2022-10-09T16:32:38.175Z,0.5
2022-10-09T16:33:38.156Z,0
2022-10-09T16:34:38.173Z,0
2022-10-09T16:35:38.154Z,0
2022-10-09T16:36:38.156Z,1
2022-10-09T16:37:38.149Z,0
2022-10-09T16:38:38.158Z,0.8
2022-10-09T16:39:38.150Z,0
2022-10-09T16:41:00.684Z,0.8
2022-10-09T16:41:41.748Z,0.5
2022-10-09T16:42:38.164Z,0
2022-10-09T16:43:38.193Z,0
2022-10-09T16:44:38.171Z,0.5
2022-10-09T16:45:38.159Z,0
2022-10-09T16:46:38.184Z,0
2022-10-09T16:47:38.171Z,0
2022-10-09T16:48:38.170Z,0.8
2022-10-09T16:49:38.160Z,0.9
2022-10-09T16:50:38.167Z,0
2022-10-09T16:51:38.168Z,0
2022-10-09T16:52:38.162Z,0
2022-10-09T16:53:38.160Z,0.5
2022-10-09T16:54:38.154Z,0.6
2022-10-09T16:55:38.163Z,0
2022-10-09T16:56:38.165Z,1
2022-10-09T16:57:38.158Z,0.7
2022-10-09T16:58:38.166Z,0.7
2022-10-09T16:59:38.194Z,1.1
2022-10-09T17:00:38.243Z,0.6
2022-10-09T17:01:38.179Z,0.9
2022-10-09T17:02:38.165Z,0.6
2022-10-09T17:03:38.199Z,0
2022-10-09T17:04:38.164Z,0
2022-10-09T17:05:38.185Z,0
2022-10-09T17:06:38.182Z,0
2022-10-09T17:07:38.186Z,0
2022-10-09T17:08:38.163Z,0.8
2022-10-09T17:09:38.204Z,0.6
2022-10-09T17:10:38.208Z,0.6
2022-10-09T17:11:38.168Z,0.5
2022-10-09T17:12:38.197Z,0.6
2022-10-09T17:13:38.180Z,0.8
2022-10-09T17:14:38.215Z,0.8
2022-10-09T17:15:38.219Z,0.5
2022-10-09T17:16:38.186Z,0
2022-10-09T17:17:38.170Z,0.7
2022-10-09T17:18:38.176Z,0
2022-10-09T17:19:38.251Z,0
2022-10-09T17:20:38.188Z,0
2022-10-09T17:21:38.187Z,0.9
2022-10-09T17:22:38.178Z,0.8
2022-10-09T17:23:38.179Z,0.6
2022-10-09T17:24:38.200Z,0.7
2022-10-09T17:25:38.212Z,0
2022-10-09T17:26:38.170Z,0.5
2022-10-09T17:27:38.166Z,0.5
2022-10-09T17:28:38.310Z,0.8
2022-10-09T17:29:38.197Z,0.6
2022-10-09T17:30:38.204Z,0.6
2022-10-09T17:31:38.195Z,0.9
2022-10-09T17:32:38.191Z,1
2022-10-09T17:33:38.184Z,0.8
2022-10-09T17:34:38.182Z,0.8
2022-10-09T17:35:38.165Z,0.5
2022-10-09T17:36:38.182Z,0.5
2022-10-09T17:37:38.173Z,0.5
2022-10-09T17:38:38.197Z,0.6
2022-10-09T17:39:38.182Z,0.8
2022-10-09T17:40:38.207Z,0.6
2022-10-09T17:41:38.201Z,0.5
2022-10-09T17:42:38.191Z,0
2022-10-09T17:43:38.179Z,0
2022-10-09T17:44:38.175Z,0
2022-10-09T17:45:39.205Z,0
2022-10-09T17:46:38.350Z,0
2022-10-09T17:47:38.272Z,0
2022-10-09T17:48:38.176Z,0
2022-10-09T17:49:38.191Z,0
2022-10-09T17:50:38.173Z,0
2022-10-09T17:51:38.171Z,0
2022-10-09T17:52:38.205Z,0
2022-10-09T17:53:38.178Z,0
2022-10-09T17:54:38.177Z,0
2022-10-09T17:55:38.187Z,0
2022-10-09T17:56:38.175Z,0
2022-10-09T17:57:38.194Z,0
2022-10-09T17:58:38.176Z,0
2022-10-09T17:59:38.175Z,0
2022-10-09T18:00:38.237Z,0.5
2022-10-09T18:01:38.187Z,0.8
2022-10-09T18:02:38.181Z,0
2022-10-09T18:03:38.192Z,0
2022-10-09T18:04:38.172Z,0.8
2022-10-09T18:05:41.134Z,0.9
2022-10-09T18:06:38.175Z,0.7
2022-10-09T18:07:38.182Z,0
2022-10-09T18:08:38.195Z,1.1
2022-10-09T18:09:38.177Z,0.6
2022-10-09T18:10:38.174Z,0
2022-10-09T18:11:38.208Z,0.5
2022-10-09T18:12:38.189Z,0.7
2022-10-09T18:13:38.178Z,0
2022-10-09T18:14:38.183Z,0
2022-10-09T18:15:38.217Z,0
2022-10-09T18:16:38.190Z,0.5
2022-10-09T18:17:38.469Z,0
2022-10-09T18:18:38.179Z,0
2022-10-09T18:19:38.216Z,0
2022-10-09T18:20:38.181Z,0
2022-10-09T18:21:38.192Z,0
2022-10-09T18:22:38.211Z,0
2022-10-09T18:23:38.186Z,0
2022-10-09T18:24:38.187Z,0
2022-10-09T18:25:38.192Z,0
2022-10-09T18:26:38.184Z,0
2022-10-09T18:27:38.192Z,0
2022-10-09T18:28:38.201Z,0
2022-10-09T18:29:38.210Z,0
2022-10-09T18:30:38.214Z,0
2022-10-09T18:31:38.193Z,0
2022-10-09T18:32:38.184Z,0
2022-10-09T18:33:38.196Z,0
2022-10-09T18:34:38.993Z,0
2022-10-09T18:35:38.232Z,0
2022-10-09T18:36:38.191Z,0
2022-10-09T18:37:38.192Z,0
2022-10-09T18:38:38.250Z,0
2022-10-09T18:39:38.459Z,0
2022-10-09T18:40:40.747Z,0
2022-10-09T18:41:38.194Z,0
2022-10-09T18:42:38.189Z,0
2022-10-09T18:43:38.208Z,0
2022-10-09T18:44:38.185Z,0
2022-10-09T18:45:38.213Z,0
2022-10-09T18:46:38.205Z,0
2022-10-09T18:47:38.191Z,0
2022-10-09T18:48:38.193Z,0
2022-10-09T18:49:38.188Z,0
2022-10-09T18:50:38.214Z,0
2022-10-09T18:51:38.224Z,0
2022-10-09T18:52:38.191Z,0
2022-10-09T18:53:38.214Z,0.7
2022-10-09T18:54:38.216Z,0.6
2022-10-09T18:55:38.220Z,1
2022-10-09T18:56:38.196Z,0
2022-10-09T18:57:38.218Z,0
2022-10-09T18:58:38.187Z,0
2022-10-09T18:59:38.214Z,0
2022-10-09T19:00:38.215Z,0
2022-10-09T19:01:38.284Z,0
2022-10-09T19:03:38.228Z,0
2022-10-09T19:04:38.193Z,0
2022-10-09T19:05:38.189Z,0
2022-10-09T19:06:38.217Z,0
2022-10-09T19:07:38.233Z,0
2022-10-09T19:08:38.198Z,0
2022-10-09T19:09:38.190Z,0
2022-10-09T19:10:38.218Z,0
2022-10-09T19:11:38.212Z,0
2022-10-09T19:12:38.208Z,0
2022-10-09T19:13:38.215Z,0
2022-10-09T19:14:38.193Z,0
2022-10-09T19:15:38.205Z,0
2022-10-09T19:16:38.229Z,0
2022-10-09T19:17:38.197Z,0
2022-10-09T19:18:38.193Z,0
2022-10-09T19:19:38.202Z,0
2022-10-09T19:20:38.207Z,0
2022-10-09T19:21:38.207Z,0
2022-10-09T19:22:38.238Z,0
2022-10-09T19:23:38.229Z,0
2022-10-09T19:24:38.218Z,0
2022-10-09T19:25:38.195Z,0
2022-10-09T19:26:38.196Z,0
2022-10-09T19:27:38.201Z,0
2022-10-09T19:28:38.252Z,0
2022-10-09T19:29:38.373Z,0
2022-10-09T19:30:38.213Z,0
2022-10-09T19:31:38.224Z,0
2022-10-09T19:32:38.223Z,0
2022-10-09T19:33:38.191Z,0
2022-10-09T19:34:38.204Z,0
2022-10-09T19:35:38.196Z,0
2022-10-09T19:36:38.205Z,0
2022-10-09T19:37:38.208Z,0
2022-10-09T19:38:38.197Z,0
2022-10-09T19:39:38.226Z,0
2022-10-09T19:40:38.216Z,0.5
2022-10-09T19:41:38.230Z,0
2022-10-09T19:42:38.225Z,0
2022-10-09T19:43:38.232Z,0
2022-10-09T19:44:38.221Z,0
2022-10-09T19:45:38.255Z,0
2022-10-09T19:46:38.212Z,0
2022-10-09T19:47:38.237Z,0
2022-10-09T19:48:38.224Z,0
2022-10-09T19:49:38.232Z,0
2022-10-09T19:50:38.200Z,0
2022-10-09T19:51:38.235Z,0
2022-10-09T19:52:38.218Z,0
2022-10-09T19:53:38.220Z,0
2022-10-09T19:54:38.251Z,0
2022-10-09T19:55:38.247Z,0
2022-10-09T19:56:38.223Z,0
2022-10-09T19:57:38.218Z,0.8
2022-10-09T19:58:38.210Z,0
2022-10-09T19:59:38.209Z,0.6
2022-10-09T20:00:38.207Z,0.5
2022-10-09T20:01:38.356Z,0
2022-10-09T20:02:38.219Z,0.7
2022-10-09T20:03:38.210Z,0
2022-10-09T20:04:38.224Z,0
2022-10-09T20:05:38.214Z,0.7
2022-10-09T20:06:38.233Z,0
2022-10-09T20:07:38.231Z,0
2022-10-09T20:08:38.212Z,0
2022-10-09T20:09:38.218Z,0.7
2022-10-09T20:10:38.236Z,0
2022-10-09T20:11:38.239Z,0.6
2022-10-09T20:12:38.247Z,0
2022-10-09T20:13:38.219Z,0.6
2022-10-09T20:14:38.221Z,0
2022-10-09T20:15:38.210Z,0.5
2022-10-09T20:16:38.213Z,0
2022-10-09T20:17:38.221Z,0
2022-10-09T20:18:38.226Z,0
2022-10-09T20:19:40.310Z,0
2022-10-09T20:20:38.246Z,0
2022-10-09T20:21:38.229Z,0
2022-10-09T20:22:38.238Z,0
2022-10-09T20:23:38.216Z,0
2022-10-09T20:24:38.217Z,0
2022-10-09T20:25:38.248Z,0
2022-10-09T20:26:42.255Z,0
2022-10-09T20:27:38.259Z,0
2022-10-09T20:28:38.270Z,0
2022-10-09T20:29:38.229Z,0
2022-10-09T20:30:38.229Z,0
2022-10-09T20:31:38.242Z,0
2022-10-09T20:32:38.237Z,0
2022-10-09T20:33:38.232Z,0
2022-10-09T20:34:38.229Z,0
2022-10-09T20:35:38.218Z,0
2022-10-09T20:36:38.251Z,0
2022-10-09T20:37:38.241Z,0
2022-10-09T20:38:38.236Z,0
2022-10-09T20:39:38.251Z,0
2022-10-09T20:40:38.226Z,0
2022-10-09T20:41:38.237Z,0
2022-10-09T20:42:38.228Z,0
2022-10-09T20:43:38.244Z,0
2022-10-09T20:44:38.229Z,0
2022-10-09T20:45:38.232Z,0
2022-10-09T20:46:38.225Z,0
2022-10-09T20:47:38.233Z,0
2022-10-09T20:48:38.252Z,0
2022-10-09T20:49:38.224Z,0
2022-10-09T20:50:38.274Z,0
2022-10-09T20:51:38.225Z,0
2022-10-09T20:52:38.281Z,0
2022-10-09T20:53:38.228Z,0
2022-10-09T20:54:38.263Z,0
2022-10-09T20:55:38.264Z,0
2022-10-09T20:56:38.225Z,0
2022-10-09T20:57:38.272Z,0
2022-10-09T20:58:38.274Z,0
2022-10-09T20:59:38.259Z,0
2022-10-09T21:00:38.286Z,0
2022-10-09T21:01:38.318Z,0
2022-10-09T21:02:38.243Z,0
2022-10-09T21:03:38.273Z,0
2022-10-09T21:04:38.255Z,0
2022-10-09T21:05:38.250Z,0
2022-10-09T21:06:38.226Z,0
2022-10-09T21:07:38.274Z,0
2022-10-09T21:08:38.262Z,0
2022-10-09T21:09:38.268Z,0
2022-10-09T21:10:38.230Z,0
2022-10-09T21:11:38.271Z,0
2022-10-09T21:12:38.264Z,0
2022-10-09T21:13:38.249Z,0
2022-10-09T21:14:38.251Z,0
2022-10-09T21:15:41.504Z,0
2022-10-09T21:16:38.240Z,0
2022-10-09T21:17:38.255Z,0
2022-10-09T21:18:38.258Z,0
2022-10-09T21:19:38.243Z,0
2022-10-09T21:20:38.250Z,0
2022-10-09T21:21:38.267Z,0
2022-10-09T21:22:38.268Z,0
2022-10-09T21:23:38.263Z,0
2022-10-09T21:24:38.287Z,0
2022-10-09T21:25:38.244Z,0
2022-10-09T21:26:38.282Z,0
2022-10-09T21:27:38.281Z,0
2022-10-09T21:28:38.312Z,0
2022-10-09T21:29:38.276Z,0
2022-10-09T21:30:41.393Z,0
2022-10-09T21:31:38.314Z,0
2022-10-09T21:32:38.287Z,0
2022-10-09T21:33:38.291Z,0
2022-10-09T21:34:38.279Z,0
2022-10-09T21:35:38.280Z,0
2022-10-09T21:36:47.067Z,0
2022-10-09T21:37:38.299Z,0
2022-10-09T21:38:38.297Z,0
2022-10-09T21:39:38.282Z,0
2022-10-09T21:40:38.284Z,0
2022-10-09T21:41:38.285Z,0
2022-10-09T21:42:38.285Z,0
2022-10-09T21:43:38.287Z,0
2022-10-09T21:44:38.506Z,0
2022-10-09T21:45:38.266Z,0
2022-10-09T21:46:38.294Z,0
2022-10-09T21:47:38.314Z,0
2022-10-09T21:48:38.303Z,0
2022-10-09T21:49:38.314Z,0
2022-10-09T21:50:38.297Z,0
2022-10-09T21:51:38.297Z,0
2022-10-09T21:52:38.304Z,0
2022-10-09T21:53:38.269Z,0
2022-10-09T21:54:38.298Z,0
2022-10-09T21:55:38.294Z,0
2022-10-09T21:56:38.303Z,0
2022-10-09T21:57:38.290Z,0
2022-10-09T21:58:38.292Z,0
2022-10-09T21:59:38.294Z,0
2022-10-09T22:00:38.272Z,0
2022-10-09T22:01:38.337Z,0
2022-10-09T22:02:38.291Z,0
2022-10-09T22:03:38.324Z,0
2022-10-09T22:04:38.283Z,0
2022-10-09T22:05:38.294Z,0
2022-10-09T22:06:38.297Z,0
2022-10-09T22:07:38.308Z,0
2022-10-09T22:08:38.292Z,0
2022-10-09T22:09:38.301Z,0
2022-10-09T22:10:38.280Z,0
2022-10-09T22:11:38.295Z,0
2022-10-09T22:12:38.306Z,0
2022-10-09T22:13:38.300Z,0
2022-10-09T22:14:38.265Z,0
2022-10-09T22:15:38.292Z,0
2022-10-09T22:16:38.281Z,0
2022-10-09T22:17:38.285Z,0
2022-10-09T22:18:38.284Z,0
2022-10-09T22:19:38.304Z,0
2022-10-09T22:20:38.282Z,0
2022-10-09T22:21:38.289Z,0
2022-10-09T22:22:38.284Z,0
2022-10-09T22:23:38.293Z,0
2022-10-09T22:24:38.281Z,0
2022-10-09T22:25:38.290Z,0
2022-10-09T22:26:38.288Z,0
2022-10-09T22:27:38.280Z,0
2022-10-09T22:28:38.335Z,0
2022-10-09T22:29:38.269Z,0
2022-10-09T22:30:38.278Z,0
2022-10-09T22:31:38.275Z,0
2022-10-09T22:32:38.281Z,0
2022-10-09T22:33:38.296Z,0
2022-10-09T22:34:38.280Z,0
2022-10-09T22:35:38.301Z,0
2022-10-09T22:36:38.271Z,0
2022-10-09T22:37:38.279Z,0
2022-10-09T22:38:38.279Z,0
2022-10-09T22:39:38.290Z,0
2022-10-09T22:40:38.291Z,0
2022-10-09T22:41:38.279Z,0
2022-10-09T22:42:38.290Z,0
2022-10-09T22:43:38.299Z,0
2022-10-09T22:44:38.281Z,0
2022-10-09T22:45:38.289Z,0
2022-10-09T22:46:38.303Z,0
2022-10-09T22:47:38.288Z,0
2022-10-09T22:48:38.294Z,0
2022-10-09T22:49:38.339Z,0
2022-10-09T22:50:38.290Z,0
2022-10-09T22:51:38.320Z,0
2022-10-09T22:52:38.302Z,0
2022-10-09T22:53:38.293Z,0
2022-10-09T22:54:38.290Z,0
2022-10-09T22:55:38.312Z,0
2022-10-09T22:56:38.322Z,0
2022-10-09T22:57:38.305Z,0
2022-10-09T22:58:38.291Z,0
2022-10-09T22:59:38.302Z,0
2022-10-09T23:00:38.311Z,0
2022-10-09T23:01:38.445Z,0
2022-10-09T23:02:38.312Z,0
2022-10-09T23:03:38.305Z,0
2022-10-09T23:04:38.305Z,0
2022-10-09T23:05:38.321Z,0
2022-10-09T23:06:38.311Z,0
2022-10-09T23:07:38.356Z,0
2022-10-09T23:08:38.310Z,0
2022-10-09T23:09:38.314Z,0
2022-10-09T23:10:38.341Z,0
2022-10-09T23:11:38.334Z,0
2022-10-09T23:12:38.341Z,0
2022-10-09T23:13:38.330Z,0
2022-10-09T23:14:38.339Z,0
2022-10-09T23:15:38.333Z,0
2022-10-09T23:16:38.351Z,0
2022-10-09T23:17:38.346Z,0
2022-10-09T23:18:38.355Z,0
2022-10-09T23:19:38.352Z,0
2022-10-09T23:20:38.350Z,0
2022-10-09T23:21:38.358Z,0
2022-10-09T23:22:38.374Z,0
2022-10-09T23:23:38.393Z,0
2022-10-09T23:24:38.362Z,0
2022-10-09T23:25:38.374Z,0
2022-10-09T23:26:38.343Z,0
2022-10-09T23:27:38.387Z,0
2022-10-09T23:28:38.559Z,0
2022-10-09T23:29:38.390Z,0
2022-10-09T23:30:38.408Z,0
2022-10-09T23:31:38.393Z,0
2022-10-09T23:32:38.403Z,0
2022-10-09T23:33:38.410Z,0
2022-10-09T23:34:38.410Z,0
2022-10-09T23:35:38.425Z,0
2022-10-09T23:36:38.415Z,0
2022-10-09T23:37:38.434Z,0
2022-10-09T23:38:38.418Z,0
2022-10-09T23:39:38.450Z,0
2022-10-09T23:40:38.421Z,0
2022-10-09T23:41:38.434Z,0
2022-10-09T23:42:38.444Z,0
2022-10-09T23:43:38.445Z,0
2022-10-09T23:44:38.437Z,0
2022-10-09T23:45:38.440Z,0
2022-10-09T23:46:38.441Z,0
2022-10-09T23:47:38.489Z,0
2022-10-09T23:48:38.470Z,0
2022-10-09T23:49:38.450Z,0
2022-10-09T23:50:38.458Z,0
2022-10-09T23:51:38.459Z,0
2022-10-09T23:52:38.461Z,0
2022-10-09T23:53:38.465Z,0
2022-10-09T23:54:38.446Z,0
2022-10-09T23:55:38.515Z,0
2022-10-09T23:56:38.472Z,0
2022-10-09T23:57:38.479Z,0
2022-10-09T23:58:38.476Z,0
2022-10-09T23:59:38.468Z,0
